createdAt,value
2018-05-18T00:00:07.811Z,4.80
2018-05-18T00:02:33.980Z,5.40
2018-05-18T00:05:00.124Z,5.50
2018-05-18T00:07:26.330Z,4.83
2018-05-18T00:09:53.195Z,4.67
2018-05-18T00:12:19.365Z,5.13
2018-05-18T00:14:45.698Z,4.67
2018-05-18T00:17:11.834Z,5.27
2018-05-18T00:19:37.972Z,6.50
2018-05-18T00:22:04.104Z,6.20
2018-05-18T00:24:30.280Z,5.50
2018-05-18T00:26:57.170Z,5.83
2018-05-18T00:29:23.304Z,4.50
2018-05-18T00:31:49.451Z,4.33
2018-05-18T00:34:15.580Z,4.77
2018-05-18T00:36:41.755Z,6.00
2018-05-18T00:39:07.887Z,4.63
2018-05-18T00:41:34.782Z,5.40
2018-05-18T00:44:00.926Z,5.50
2018-05-18T00:46:27.068Z,4.93
2018-05-18T00:48:53.334Z,4.57
2018-05-18T00:51:19.462Z,5.50
2018-05-18T00:53:45.600Z,5.00
2018-05-18T00:56:11.779Z,5.63
2018-05-18T00:58:37.898Z,4.80
2018-05-18T01:01:04.056Z,4.20
2018-05-18T01:03:30.232Z,4.90
2018-05-18T01:05:56.371Z,6.43
2018-05-18T01:08:22.515Z,4.83
2018-05-18T01:10:48.652Z,5.00
2018-05-18T01:13:14.774Z,5.20
2018-05-18T01:15:40.961Z,5.67
2018-05-18T01:18:07.155Z,5.33
2018-05-18T01:20:33.314Z,5.47
2018-05-18T01:22:59.477Z,5.70
2018-05-18T01:25:25.626Z,4.90
2018-05-18T01:27:51.818Z,5.70
2018-05-18T01:30:17.959Z,5.73
2018-05-18T01:32:44.109Z,6.03
2018-05-18T01:35:10.246Z,5.90
2018-05-18T01:37:37.155Z,5.30
2018-05-18T01:40:03.284Z,5.00
2018-05-18T01:42:29.426Z,5.00
2018-05-18T01:44:55.537Z,4.33
2018-05-18T01:47:21.751Z,4.70
2018-05-18T01:49:47.874Z,4.83
2018-05-18T01:52:14.024Z,4.67
2018-05-18T01:54:40.165Z,5.70
2018-05-18T01:57:06.287Z,6.30
2018-05-18T01:59:32.492Z,4.93
2018-05-18T02:01:58.610Z,5.10
2018-05-18T02:04:24.776Z,5.37
2018-05-18T02:06:50.975Z,5.03
2018-05-18T02:09:17.131Z,5.37
2018-05-18T02:11:44.023Z,5.40
2018-05-18T02:14:10.186Z,5.10
2018-05-18T02:16:36.328Z,5.47
2018-05-18T02:19:02.515Z,5.20
2018-05-18T02:21:28.634Z,4.40
2018-05-18T02:23:54.805Z,6.07
2018-05-18T02:26:21.736Z,5.30
2018-05-18T02:28:47.861Z,5.10
2018-05-18T02:31:14.055Z,4.70
2018-05-18T02:33:40.167Z,6.87
2018-05-18T02:36:06.343Z,5.17
2018-05-18T02:38:32.467Z,5.80
2018-05-18T02:40:59.376Z,5.20
2018-05-18T02:43:25.548Z,5.63
2018-05-18T02:45:51.696Z,6.10
2018-05-18T02:48:17.823Z,5.13
2018-05-18T02:50:43.994Z,6.03
2018-05-18T02:53:10.137Z,5.00
2018-05-18T02:55:37.055Z,5.20
2018-05-18T02:58:03.979Z,5.23
2018-05-18T03:00:30.168Z,4.80
2018-05-18T03:02:56.282Z,4.83
2018-05-18T03:05:23.139Z,5.60
2018-05-18T03:07:49.291Z,4.97
2018-05-18T03:10:15.503Z,5.70
2018-05-18T03:12:42.168Z,5.97
2018-05-18T03:15:08.331Z,5.70
2018-05-18T03:17:35.259Z,5.53
2018-05-18T03:20:01.384Z,6.70
2018-05-18T03:22:28.299Z,6.50
2018-05-18T03:24:54.426Z,6.03
2018-05-18T03:27:20.586Z,9.23
2018-05-18T03:29:46.722Z,10.00
2018-05-18T03:32:13.615Z,9.30
2018-05-18T03:34:39.757Z,10.63
2018-05-18T03:37:05.874Z,12.83
2018-05-18T03:39:32.037Z,13.87
2018-05-18T03:41:58.905Z,9.73
2018-05-18T03:44:25.039Z,10.40
2018-05-18T03:46:51.194Z,11.00
2018-05-18T03:49:17.335Z,12.50
2018-05-18T03:51:43.458Z,11.80
2018-05-18T03:54:09.593Z,12.33
2018-05-18T03:56:35.741Z,11.43
2018-05-18T03:59:01.909Z,14.00
2018-05-18T04:01:41.623Z,14.07
2018-05-18T04:04:20.789Z,14.93
2018-05-18T04:06:59.162Z,12.63
2018-05-18T04:09:25.362Z,12.63
2018-05-18T04:11:52.225Z,13.37
2018-05-18T04:14:18.396Z,12.40
2018-05-18T04:16:44.534Z,14.37
2018-05-18T04:19:10.684Z,14.27
2018-05-18T04:21:37.556Z,16.30
2018-05-18T04:24:03.735Z,14.87
2018-05-18T04:26:29.902Z,14.27
2018-05-18T04:28:56.060Z,14.60
2018-05-18T04:31:22.204Z,15.60
2018-05-18T04:33:48.331Z,16.00
2018-05-18T04:36:14.478Z,16.50
2018-05-18T04:38:41.357Z,15.10
2018-05-18T04:41:07.530Z,16.80
2018-05-18T04:43:33.663Z,17.47
2018-05-18T04:45:59.853Z,16.23
2018-05-18T04:48:26.006Z,16.77
2018-05-18T04:50:52.238Z,17.70
2018-05-18T04:53:18.372Z,17.70
2018-05-18T04:55:45.291Z,18.63
2018-05-18T04:58:11.419Z,18.23
2018-05-18T05:00:37.596Z,18.60
2018-05-18T05:03:03.808Z,17.80
2018-05-18T05:05:30.012Z,18.70
2018-05-18T05:07:56.087Z,18.50
2018-05-18T05:10:22.195Z,19.23
2018-05-18T05:12:48.935Z,18.03
2018-05-18T05:15:15.057Z,18.50
2018-05-18T05:17:41.197Z,17.90
2018-05-18T05:20:07.335Z,18.07
2018-05-18T05:22:33.590Z,18.17
2018-05-18T05:24:59.699Z,20.70
2018-05-18T05:27:25.871Z,18.37
2018-05-18T05:29:52.012Z,20.30
2018-05-18T05:32:18.210Z,20.77
2018-05-18T05:34:44.336Z,23.23
2018-05-18T05:37:11.239Z,19.43
2018-05-18T05:39:37.438Z,22.43
2018-05-18T05:42:03.559Z,21.50
2018-05-18T05:44:29.679Z,19.63
2018-05-18T05:46:56.515Z,20.63
2018-05-18T05:49:22.616Z,20.87
2018-05-18T05:51:49.535Z,21.53
2018-05-18T05:54:15.767Z,19.93
2018-05-18T05:56:41.924Z,20.13
2018-05-18T05:59:08.145Z,20.20
2018-05-18T06:01:34.334Z,20.90
2018-05-18T06:04:00.486Z,21.40
2018-05-18T06:06:27.366Z,20.77
2018-05-18T06:08:53.518Z,20.40
2018-05-18T06:11:19.654Z,20.17
2018-05-18T06:13:45.868Z,23.07
2018-05-18T06:16:12.012Z,21.00
2018-05-18T06:18:38.158Z,20.37
2018-05-18T06:21:05.083Z,22.23
2018-05-18T06:23:31.258Z,20.53
2018-05-18T06:25:57.446Z,21.20
2018-05-18T06:28:23.615Z,20.13
2018-05-18T06:30:49.802Z,20.50
2018-05-18T06:33:16.026Z,22.67
2018-05-18T06:35:42.164Z,20.60
2018-05-18T06:38:09.047Z,19.70
2018-05-18T06:40:35.229Z,17.53
2018-05-18T06:43:01.454Z,20.17
2018-05-18T06:45:27.625Z,19.70
2018-05-18T06:47:53.731Z,21.43
2018-05-18T06:50:20.139Z,20.70
2018-05-18T06:52:47.019Z,18.70
2018-05-18T06:55:13.194Z,18.70
2018-05-18T06:57:39.338Z,17.50
2018-05-18T07:00:06.299Z,17.20
2018-05-18T07:02:32.451Z,17.30
2018-05-18T07:04:58.570Z,16.80
2018-05-18T07:07:24.703Z,17.93
2018-05-18T07:09:50.815Z,19.23
2018-05-18T07:12:17.001Z,20.23
2018-05-18T07:14:43.891Z,17.60
2018-05-18T07:17:10.894Z,17.27
2018-05-18T07:19:38.023Z,16.70
2018-05-18T07:22:04.255Z,18.80
2018-05-18T07:24:30.394Z,17.67
2018-05-18T07:26:56.586Z,17.47
2018-05-18T07:29:22.935Z,17.00
2018-05-18T07:31:49.203Z,15.90
2018-05-18T07:34:15.338Z,16.87
2018-05-18T07:36:41.527Z,16.07
2018-05-18T07:39:07.658Z,17.83
2018-05-18T07:41:34.557Z,17.50
2018-05-18T07:44:00.671Z,16.13
2018-05-18T07:46:27.707Z,16.93
2018-05-18T07:48:53.856Z,16.33
2018-05-18T07:51:20.955Z,15.80
2018-05-18T07:53:47.098Z,15.07
2018-05-18T07:56:13.236Z,18.90
2018-05-18T07:58:39.424Z,15.93
2018-05-18T08:01:06.291Z,16.70
2018-05-18T08:03:32.441Z,17.60
2018-05-18T08:05:58.633Z,18.23
2018-05-18T08:08:25.020Z,14.50
2018-05-18T08:10:51.211Z,17.13
2018-05-18T08:13:17.413Z,17.40
2018-05-18T08:15:43.802Z,16.30
2018-05-18T08:18:10.000Z,17.50
2018-05-18T08:20:36.201Z,15.13
2018-05-18T08:23:02.419Z,16.43
2018-05-18T08:25:28.537Z,16.30
2018-05-18T08:27:55.012Z,17.20
2018-05-18T08:30:21.435Z,17.10
2018-05-18T08:32:47.710Z,15.90
2018-05-18T08:35:13.863Z,15.57
2018-05-18T08:37:40.027Z,17.87
2018-05-18T08:40:06.183Z,14.47
2018-05-18T08:42:32.313Z,17.00
2018-05-18T08:44:58.566Z,15.30
2018-05-18T08:47:24.734Z,15.77
2018-05-18T08:49:50.878Z,17.13
2018-05-18T08:52:17.051Z,15.83
2018-05-18T08:54:43.282Z,16.40
2018-05-18T08:57:09.412Z,17.43
2018-05-18T08:59:35.543Z,15.93
2018-05-18T09:02:01.649Z,16.00
2018-05-18T09:04:27.807Z,17.30
2018-05-18T09:06:54.016Z,15.60
2018-05-18T09:09:20.135Z,18.13
2018-05-18T09:11:46.272Z,16.93
2018-05-18T09:14:12.420Z,17.00
2018-05-18T09:16:38.586Z,17.10
2018-05-18T09:19:04.705Z,15.93
2018-05-18T09:21:31.583Z,17.97
2018-05-18T09:23:57.729Z,16.80
2018-05-18T09:26:23.893Z,16.90
2018-05-18T09:28:50.006Z,16.00
2018-05-18T09:31:16.141Z,17.93
2018-05-18T09:33:43.291Z,17.40
2018-05-18T09:36:10.179Z,16.93
2018-05-18T09:38:36.455Z,17.47
2018-05-18T09:41:02.682Z,19.03
2018-05-18T09:43:28.895Z,17.37
2018-05-18T09:45:55.254Z,17.70
2018-05-18T09:48:21.413Z,17.97
2018-05-18T09:50:47.599Z,16.97
2018-05-18T09:53:13.885Z,17.33
2018-05-18T09:55:39.895Z,18.73
2018-05-18T09:58:06.051Z,17.50
2018-05-18T10:00:32.179Z,18.20
2018-05-18T10:02:58.307Z,17.27
2018-05-18T10:05:24.402Z,18.23
2018-05-18T10:07:50.543Z,18.60
2018-05-18T10:10:16.678Z,18.13
2018-05-18T10:12:42.796Z,20.40
2018-05-18T10:15:09.951Z,18.63
2018-05-18T10:17:36.075Z,19.17
2018-05-18T10:20:02.267Z,18.10
2018-05-18T10:22:28.376Z,20.43
2018-05-18T10:24:54.671Z,20.07
2018-05-18T10:27:20.846Z,22.13
2018-05-18T10:29:47.062Z,20.27
2018-05-18T10:32:13.226Z,21.23
2018-05-18T10:34:39.515Z,20.17
2018-05-18T10:37:05.829Z,22.67
2018-05-18T10:39:40.666Z,24.20
2018-05-18T10:42:07.232Z,20.90
2018-05-18T10:44:33.413Z,22.67
2018-05-18T10:46:59.673Z,22.47
2018-05-18T10:49:26.862Z,22.60
2018-05-18T10:51:53.120Z,24.53
2018-05-18T10:54:23.550Z,23.10
2018-05-18T10:56:50.778Z,23.10
2018-05-18T10:59:22.140Z,25.70
2018-05-18T11:01:48.388Z,23.13
2018-05-18T11:04:15.236Z,23.00
2018-05-18T11:06:45.429Z,23.40
2018-05-18T11:09:13.004Z,22.47
2018-05-18T11:11:39.870Z,20.80
2018-05-18T11:14:09.999Z,19.73
2018-05-18T11:19:23.695Z,21.20
2018-05-18T11:21:49.868Z,21.77
2018-05-18T11:24:16.695Z,20.80
2018-05-18T11:26:42.885Z,20.60
2018-05-18T11:29:10.192Z,21.63
2018-05-18T11:31:36.440Z,19.90
2018-05-18T11:34:02.664Z,19.13
2018-05-18T11:36:29.476Z,20.23
2018-05-18T11:38:55.703Z,22.40
2018-05-18T11:41:26.499Z,20.73
2018-05-18T11:43:55.096Z,22.30
2018-05-18T11:46:21.999Z,21.70
2018-05-18T11:48:48.159Z,20.33
2018-05-18T11:51:17.102Z,22.57
2018-05-18T11:53:47.834Z,22.10
2018-05-18T11:56:14.011Z,22.13
2018-05-18T11:58:53.058Z,21.77
2018-05-18T12:01:20.269Z,21.83
2018-05-18T12:03:47.524Z,22.27
2018-05-18T12:06:16.074Z,20.97
2018-05-18T12:08:50.014Z,22.20
2018-05-18T12:11:16.308Z,22.07
2018-05-18T12:13:43.403Z,22.10
2018-05-18T12:16:09.708Z,20.77
2018-05-18T12:18:36.968Z,18.97
2018-05-18T12:21:03.934Z,21.30
2018-05-18T12:23:31.087Z,19.70
2018-05-18T12:25:58.220Z,19.30
2018-05-18T12:28:31.558Z,21.30
2018-05-18T12:30:58.175Z,17.30
2018-05-18T12:33:24.466Z,18.00
2018-05-18T12:35:51.674Z,20.13
2018-05-18T12:38:18.001Z,17.77
2018-05-18T12:40:44.924Z,20.47
2018-05-18T12:43:15.019Z,19.07
2018-05-18T12:45:41.553Z,19.50
2018-05-18T12:48:07.822Z,19.03
2018-05-18T12:50:34.031Z,19.10
2018-05-18T12:53:02.055Z,16.87
2018-05-18T12:55:29.582Z,17.67
2018-05-18T12:57:55.871Z,18.73
2018-05-18T13:00:26.990Z,19.07
2018-05-18T13:02:53.615Z,19.33
2018-05-18T13:05:19.851Z,19.47
2018-05-18T13:07:46.016Z,18.20
2018-05-18T13:10:12.749Z,18.47
2018-05-18T13:12:40.217Z,19.53
2018-05-18T13:15:14.304Z,17.67
2018-05-18T13:17:41.318Z,20.03
2018-05-18T13:20:08.406Z,18.17
2018-05-18T13:22:34.669Z,18.73
2018-05-18T13:25:02.084Z,18.37
2018-05-18T13:27:28.364Z,18.63
2018-05-18T13:30:03.063Z,20.30
2018-05-18T13:32:29.806Z,18.93
2018-05-18T13:34:58.211Z,19.17
2018-05-18T13:37:29.102Z,20.10
2018-05-18T13:39:57.439Z,20.10
2018-05-18T13:42:36.711Z,20.90
2018-05-18T13:45:02.960Z,17.97
2018-05-18T13:47:29.149Z,18.50
2018-05-18T13:49:55.940Z,19.70
2018-05-18T13:52:30.949Z,22.03
2018-05-18T13:54:57.163Z,21.27
2018-05-18T13:57:23.360Z,21.13
2018-05-18T13:59:49.567Z,22.40
2018-05-18T14:02:15.866Z,23.37
2018-05-18T14:04:43.022Z,23.73
2018-05-18T14:07:09.951Z,25.93
2018-05-18T14:09:36.898Z,23.47
2018-05-18T14:12:03.171Z,23.83
2018-05-18T14:14:30.764Z,25.37
2018-05-18T14:16:57.386Z,24.00
2018-05-18T14:19:25.268Z,24.23
2018-05-18T14:21:51.481Z,26.60
2018-05-18T14:24:17.885Z,25.00
2018-05-18T14:26:44.180Z,21.77
2018-05-18T14:29:14.815Z,18.83
2018-05-18T14:31:41.042Z,20.20
2018-05-18T14:34:11.972Z,22.30
2018-05-18T14:36:38.210Z,18.23
2018-05-18T14:39:06.206Z,14.47
2018-05-18T14:41:33.293Z,13.60
2018-05-18T14:43:59.681Z,14.87
2018-05-18T14:46:26.087Z,13.07
2018-05-18T14:48:55.277Z,13.67
2018-05-18T14:51:22.413Z,12.00
2018-05-18T14:53:48.612Z,12.83
2018-05-18T14:56:14.891Z,14.30
2018-05-18T14:58:41.162Z,12.80
2018-05-18T15:01:08.301Z,12.97
2018-05-18T15:03:35.012Z,11.57
2018-05-18T15:06:02.542Z,12.37
2018-05-18T15:08:28.721Z,13.90
2018-05-18T15:11:04.471Z,14.40
2018-05-18T15:13:36.065Z,14.10
2018-05-18T15:16:02.731Z,14.13
2018-05-18T15:18:28.954Z,11.40
2018-05-18T15:20:58.022Z,11.43
2018-05-18T15:23:34.297Z,10.27
2018-05-18T15:28:42.438Z,11.27
2018-05-18T15:31:08.989Z,11.10
2018-05-18T15:33:35.249Z,12.10
2018-05-18T15:36:01.449Z,10.53
2018-05-18T15:38:27.663Z,11.50
2018-05-18T15:40:53.924Z,11.30
2018-05-18T15:43:20.887Z,11.43
2018-05-18T15:45:47.190Z,11.10
2018-05-18T15:48:19.465Z,12.47
2018-05-18T15:50:45.691Z,12.20
2018-05-18T15:53:12.017Z,11.83
2018-05-18T15:55:38.295Z,12.90
2018-05-18T15:58:06.022Z,11.27
2018-05-18T16:00:32.315Z,12.70
2018-05-18T16:02:59.531Z,11.50
2018-05-18T16:05:25.738Z,10.47
2018-05-18T16:07:52.280Z,9.80
2018-05-18T16:10:19.089Z,10.57
2018-05-18T16:12:46.115Z,10.73
2018-05-18T16:15:12.323Z,11.10
2018-05-18T16:17:38.519Z,11.50
2018-05-18T16:20:04.744Z,13.23
2018-05-18T16:22:31.617Z,11.73
2018-05-18T16:24:57.933Z,11.70
2018-05-18T16:27:24.271Z,11.17
2018-05-18T16:29:51.992Z,11.83
2018-05-18T16:32:18.347Z,13.43
2018-05-18T16:34:46.047Z,11.50
2018-05-18T16:37:14.040Z,11.57
2018-05-18T16:39:40.996Z,11.70
2018-05-18T16:42:07.928Z,12.07
2018-05-18T16:44:35.808Z,10.87
2018-05-18T16:47:02.149Z,11.23
2018-05-18T16:49:28.356Z,11.47
2018-05-18T16:51:55.439Z,9.70
2018-05-18T16:54:26.622Z,10.00
2018-05-18T16:57:01.405Z,10.47
2018-05-18T16:59:27.613Z,11.20
2018-05-18T17:01:54.391Z,10.93
2018-05-18T17:04:20.574Z,11.60
2018-05-18T17:06:48.316Z,10.90
2018-05-18T17:09:20.875Z,10.37
2018-05-18T17:11:47.111Z,9.93
2018-05-18T17:14:13.311Z,11.90
2018-05-18T17:16:39.591Z,11.43
2018-05-18T17:19:06.734Z,11.07
2018-05-18T17:21:32.943Z,11.83
2018-05-18T17:24:00.890Z,11.30
2018-05-18T17:26:27.063Z,9.97
2018-05-18T17:28:54.026Z,11.07
2018-05-18T17:31:21.050Z,10.10
2018-05-18T17:33:47.380Z,8.80
2018-05-18T17:36:13.816Z,10.67
2018-05-18T17:38:42.503Z,9.43
2018-05-18T17:41:08.703Z,8.87
2018-05-18T17:43:34.867Z,10.80
2018-05-18T17:46:02.266Z,8.57
2018-05-18T17:48:28.560Z,9.13
2018-05-18T17:50:55.760Z,9.40
2018-05-18T17:53:23.273Z,9.13
2018-05-18T17:58:23.748Z,9.30
2018-05-18T18:00:50.679Z,8.10
2018-05-18T18:03:16.868Z,9.67
2018-05-18T18:05:43.585Z,8.87
2018-05-18T18:08:09.812Z,8.97
2018-05-18T18:10:37.059Z,7.57
2018-05-18T18:13:03.506Z,9.10
2018-05-18T18:15:35.015Z,9.10
2018-05-18T18:18:01.699Z,10.70
2018-05-18T18:20:28.645Z,9.53
2018-05-18T18:22:54.817Z,10.10
2018-05-18T18:25:23.069Z,10.20
2018-05-18T18:27:51.786Z,9.43
2018-05-18T18:30:18.288Z,7.93
2018-05-18T18:32:45.671Z,9.60
2018-05-18T18:35:12.132Z,9.03
2018-05-18T18:37:39.121Z,9.00
2018-05-18T18:40:05.679Z,9.10
2018-05-18T18:42:32.164Z,10.10
2018-05-18T18:44:59.734Z,8.83
2018-05-18T18:47:26.042Z,9.20
2018-05-18T18:49:54.268Z,9.10
2018-05-18T18:52:20.475Z,8.40
2018-05-18T18:54:46.751Z,9.00
2018-05-18T18:57:14.056Z,9.80
2018-05-18T18:59:40.999Z,8.63
2018-05-18T19:02:07.216Z,9.97
2018-05-18T19:04:35.522Z,10.50
2018-05-18T19:07:06.536Z,10.10
2018-05-18T19:09:33.568Z,9.23
2018-05-18T19:12:05.793Z,10.57
2018-05-18T19:14:32.911Z,9.00
2018-05-18T19:16:59.144Z,9.70
2018-05-18T19:19:25.889Z,8.57
2018-05-18T19:21:52.759Z,9.90
2018-05-18T19:24:18.923Z,10.33
2018-05-18T19:26:46.799Z,9.43
2018-05-18T19:29:12.994Z,9.10
2018-05-18T19:31:45.960Z,8.90
2018-05-18T19:34:12.305Z,9.50
2018-05-18T19:36:39.994Z,9.83
2018-05-18T19:39:06.720Z,9.07
2018-05-18T19:41:33.702Z,9.50
2018-05-18T19:44:04.193Z,8.60
2018-05-18T19:46:30.408Z,9.03
2018-05-18T19:48:56.621Z,9.57
2018-05-18T19:51:25.614Z,10.03
2018-05-18T19:53:53.114Z,9.37
2018-05-18T19:56:19.427Z,9.00
2018-05-18T19:58:46.185Z,9.60
2018-05-18T20:01:12.397Z,9.60
2018-05-18T20:03:39.389Z,9.03
2018-05-18T20:06:06.401Z,10.13
2018-05-18T20:08:33.553Z,10.37
2018-05-18T20:10:59.740Z,10.77
2018-05-18T20:13:25.926Z,10.70
2018-05-18T20:15:52.145Z,10.17
2018-05-18T20:18:18.346Z,11.10
2018-05-18T20:20:45.069Z,10.50
2018-05-18T20:23:12.135Z,10.83
2018-05-18T20:25:38.896Z,10.87
2018-05-18T20:28:06.801Z,11.10
2018-05-18T20:30:33.903Z,10.60
2018-05-18T20:33:01.473Z,11.57
2018-05-18T20:35:27.898Z,10.47
2018-05-18T20:37:54.864Z,10.93
2018-05-18T20:40:21.080Z,11.13
2018-05-18T20:42:47.247Z,11.23
2018-05-18T20:45:13.704Z,10.90
2018-05-18T20:47:40.741Z,10.80
2018-05-18T20:50:08.440Z,11.07
2018-05-18T20:52:35.371Z,11.03
2018-05-18T20:55:01.609Z,10.80
2018-05-18T20:57:29.529Z,9.90
2018-05-18T20:59:56.277Z,10.70
2018-05-18T21:02:22.548Z,10.50
2018-05-18T21:04:49.465Z,10.80
2018-05-18T21:07:15.656Z,11.60
2018-05-18T21:09:41.936Z,9.60
2018-05-18T21:12:08.826Z,10.50
2018-05-18T21:14:35.000Z,9.83
2018-05-18T21:17:01.524Z,10.23
2018-05-18T21:19:37.544Z,11.20
2018-05-18T21:22:03.815Z,10.87
2018-05-18T21:24:30.051Z,11.50
2018-05-18T21:29:35.903Z,11.40
2018-05-18T21:32:02.202Z,10.33
2018-05-18T21:34:28.447Z,10.93
2018-05-18T21:36:55.182Z,10.47
2018-05-18T21:39:22.038Z,10.90
2018-05-18T21:41:48.203Z,11.20
2018-05-18T21:44:14.660Z,9.73
2018-05-18T21:46:44.808Z,9.97
2018-05-18T21:49:11.813Z,10.37
2018-05-18T21:51:38.941Z,9.63
2018-05-18T21:54:05.310Z,10.77
2018-05-18T21:56:32.796Z,9.90
2018-05-18T21:59:02.962Z,10.10
2018-05-18T22:04:02.226Z,10.63
2018-05-18T22:06:28.599Z,9.00
2018-05-18T22:08:54.847Z,9.50
2018-05-18T22:11:21.082Z,9.73
2018-05-18T22:13:47.295Z,9.63
2018-05-18T22:16:14.074Z,11.23
2018-05-18T22:18:40.217Z,9.67
2018-05-18T22:21:06.437Z,10.13
2018-05-18T22:23:32.607Z,9.70
2018-05-18T22:25:58.795Z,9.90
2018-05-18T22:28:24.951Z,10.50
2018-05-18T22:30:52.110Z,11.67
2018-05-18T22:33:18.362Z,12.20
2018-05-18T22:35:44.502Z,10.00
2018-05-18T22:38:10.759Z,10.50
2018-05-18T22:40:36.944Z,11.03
2018-05-18T22:43:03.102Z,11.23
2018-05-18T22:45:29.323Z,10.77
2018-05-18T22:47:56.300Z,9.57
2018-05-18T22:50:22.423Z,10.30
2018-05-18T22:52:48.598Z,10.50
2018-05-18T22:55:15.489Z,11.23
2018-05-18T22:57:41.639Z,11.00
2018-05-18T23:00:07.788Z,10.20
2018-05-18T23:02:33.955Z,10.63
2018-05-18T23:05:00.090Z,11.50
2018-05-18T23:07:26.392Z,9.63
2018-05-18T23:09:52.502Z,10.40
2018-05-18T23:12:19.371Z,10.80
2018-05-18T23:14:45.495Z,10.70
2018-05-18T23:17:11.628Z,11.03
2018-05-18T23:19:38.470Z,10.50
2018-05-18T23:22:04.654Z,10.90
2018-05-18T23:24:30.774Z,10.40
2018-05-18T23:26:56.925Z,9.57
2018-05-18T23:29:23.058Z,10.20
2018-05-18T23:31:49.202Z,10.30
2018-05-18T23:34:15.358Z,11.10
2018-05-18T23:36:41.530Z,10.20
2018-05-18T23:39:07.683Z,10.33
2018-05-18T23:41:33.783Z,10.83
2018-05-18T23:43:59.911Z,10.83
2018-05-18T23:46:26.559Z,10.80
2018-05-18T23:48:53.127Z,12.00
2018-05-18T23:51:19.988Z,10.17
2018-05-18T23:53:47.030Z,10.70
2018-05-18T23:56:13.138Z,10.33
2018-05-18T23:58:40.243Z,11.07
